sensor_id;sensor_type;location;lat;lon;timestamp;temperature;humidity
20380;DHT22;10349;48.666;8.948;2023-04-06T00:02:08;-0.50;99.90
20380;DHT22;10349;48.666;8.948;2023-04-06T00:04:34;-0.60;99.90
20380;DHT22;10349;48.666;8.948;2023-04-06T00:07:00;-0.60;99.90
20380;DHT22;10349;48.666;8.948;2023-04-06T00:09:26;-0.70;99.90
20380;DHT22;10349;48.666;8.948;2023-04-06T00:11:52;-0.70;99.90
20380;DHT22;10349;48.666;8.948;2023-04-06T00:14:17;-0.80;99.90
20380;DHT22;10349;48.666;8.948;2023-04-06T00:16:43;-0.80;99.90
20380;DHT22;10349;48.666;8.948;2023-04-06T00:19:09;-0.90;99.90
20380;DHT22;10349;48.666;8.948;2023-04-06T00:21:35;-0.90;99.90
20380;DHT22;10349;48.666;8.948;2023-04-06T00:24:01;-0.90;99.90
20380;DHT22;10349;48.666;8.948;2023-04-06T00:26:26;-1.00;99.90
20380;DHT22;10349;48.666;8.948;2023-04-06T00:28:54;-1.00;99.90
20380;DHT22;10349;48.666;8.948;2023-04-06T00:31:20;-1.00;99.90
20380;DHT22;10349;48.666;8.948;2023-04-06T00:33:45;-1.00;99.90
20380;DHT22;10349;48.666;8.948;2023-04-06T00:36:11;-1.00;99.90
20380;DHT22;10349;48.666;8.948;2023-04-06T00:38:37;-1.00;99.90
20380;DHT22;10349;48.666;8.948;2023-04-06T00:41:04;-1.00;99.90
20380;DHT22;10349;48.666;8.948;2023-04-06T00:43:30;-1.10;99.90
20380;DHT22;10349;48.666;8.948;2023-04-06T00:45:55;-1.10;99.90
20380;DHT22;10349;48.666;8.948;2023-04-06T00:48:22;-1.10;99.90
20380;DHT22;10349;48.666;8.948;2023-04-06T00:50:47;-1.00;99.90
20380;DHT22;10349;48.666;8.948;2023-04-06T00:53:13;-1.10;99.90
20380;DHT22;10349;48.666;8.948;2023-04-06T00:55:39;-1.00;99.90
20380;DHT22;10349;48.666;8.948;2023-04-06T00:58:06;-1.10;99.90
20380;DHT22;10349;48.666;8.948;2023-04-06T01:00:41;-1.10;99.90
20380;DHT22;10349;48.666;8.948;2023-04-06T01:03:12;-1.10;99.90
20380;DHT22;10349;48.666;8.948;2023-04-06T01:05:41;-1.10;99.90
20380;DHT22;10349;48.666;8.948;2023-04-06T01:08:16;-1.10;99.90
20380;DHT22;10349;48.666;8.948;2023-04-06T01:10:42;-1.20;99.90
20380;DHT22;10349;48.666;8.948;2023-04-06T01:13:15;-1.20;99.90
20380;DHT22;10349;48.666;8.948;2023-04-06T01:15:57;-1.20;99.90
20380;DHT22;10349;48.666;8.948;2023-04-06T01:18:29;-1.30;99.90
20380;DHT22;10349;48.666;8.948;2023-04-06T01:21:11;-1.30;99.90
20380;DHT22;10349;48.666;8.948;2023-04-06T01:23:45;-1.30;99.90
20380;DHT22;10349;48.666;8.948;2023-04-06T01:26:12;-1.30;99.90
20380;DHT22;10349;48.666;8.948;2023-04-06T01:28:39;-1.30;99.90
20380;DHT22;10349;48.666;8.948;2023-04-06T01:31:14;-1.30;99.90
20380;DHT22;10349;48.666;8.948;2023-04-06T01:33:47;-1.30;99.90
20380;DHT22;10349;48.666;8.948;2023-04-06T01:36:16;-1.30;99.90
20380;DHT22;10349;48.666;8.948;2023-04-06T01:38:44;-1.40;99.90
20380;DHT22;10349;48.666;8.948;2023-04-06T01:41:11;-1.40;99.90
20380;DHT22;10349;48.666;8.948;2023-04-06T01:43:47;-1.60;99.90
20380;DHT22;10349;48.666;8.948;2023-04-06T01:46:15;-1.60;99.90
20380;DHT22;10349;48.666;8.948;2023-04-06T01:48:42;-1.60;99.90
20380;DHT22;10349;48.666;8.948;2023-04-06T01:51:17;-1.70;99.90
20380;DHT22;10349;48.666;8.948;2023-04-06T01:53:49;-1.70;99.90
20380;DHT22;10349;48.666;8.948;2023-04-06T01:56:17;-1.70;99.90
20380;DHT22;10349;48.666;8.948;2023-04-06T01:58:51;-1.70;99.90
20380;DHT22;10349;48.666;8.948;2023-04-06T02:01:17;-1.70;99.90
20380;DHT22;10349;48.666;8.948;2023-04-06T02:03:50;-1.70;99.90
20380;DHT22;10349;48.666;8.948;2023-04-06T02:06:16;-1.70;99.90
20380;DHT22;10349;48.666;8.948;2023-04-06T02:08:42;-1.70;99.90
20380;DHT22;10349;48.666;8.948;2023-04-06T02:11:08;-1.70;99.90
20380;DHT22;10349;48.666;8.948;2023-04-06T02:13:39;-1.70;99.90
20380;DHT22;10349;48.666;8.948;2023-04-06T02:16:05;-1.70;99.90
20380;DHT22;10349;48.666;8.948;2023-04-06T02:18:31;-1.70;99.90
20380;DHT22;10349;48.666;8.948;2023-04-06T02:20:57;-1.70;99.90
20380;DHT22;10349;48.666;8.948;2023-04-06T02:23:22;-1.80;99.90
20380;DHT22;10349;48.666;8.948;2023-04-06T02:25:49;-1.80;99.90
20380;DHT22;10349;48.666;8.948;2023-04-06T02:28:14;-1.80;99.90
20380;DHT22;10349;48.666;8.948;2023-04-06T02:30:40;-1.80;99.90
20380;DHT22;10349;48.666;8.948;2023-04-06T02:33:06;-1.80;99.90
20380;DHT22;10349;48.666;8.948;2023-04-06T02:35:40;-1.90;99.90
20380;DHT22;10349;48.666;8.948;2023-04-06T02:38:06;-1.90;99.90
20380;DHT22;10349;48.666;8.948;2023-04-06T02:40:32;-1.90;99.90
20380;DHT22;10349;48.666;8.948;2023-04-06T02:43:06;-1.90;99.90
20380;DHT22;10349;48.666;8.948;2023-04-06T02:45:31;-1.90;99.90
20380;DHT22;10349;48.666;8.948;2023-04-06T02:47:59;-1.90;99.90
20380;DHT22;10349;48.666;8.948;2023-04-06T02:50:26;-1.90;99.90
20380;DHT22;10349;48.666;8.948;2023-04-06T02:52:58;-2.00;99.90
20380;DHT22;10349;48.666;8.948;2023-04-06T02:55:23;-2.00;99.90
20380;DHT22;10349;48.666;8.948;2023-04-06T02:57:49;-2.00;99.90
20380;DHT22;10349;48.666;8.948;2023-04-06T03:00:17;-2.10;99.90
20380;DHT22;10349;48.666;8.948;2023-04-06T03:02:43;-2.10;99.90
20380;DHT22;10349;48.666;8.948;2023-04-06T03:05:12;-2.10;99.90
20380;DHT22;10349;48.666;8.948;2023-04-06T03:07:41;-2.10;99.90
20380;DHT22;10349;48.666;8.948;2023-04-06T03:10:12;-2.10;99.90
20380;DHT22;10349;48.666;8.948;2023-04-06T03:12:38;-2.20;99.90
20380;DHT22;10349;48.666;8.948;2023-04-06T03:15:16;-2.30;99.90
20380;DHT22;10349;48.666;8.948;2023-04-06T03:17:46;-2.30;99.90
20380;DHT22;10349;48.666;8.948;2023-04-06T03:20:28;-2.30;99.90
20380;DHT22;10349;48.666;8.948;2023-04-06T03:22:53;-2.40;99.90
20380;DHT22;10349;48.666;8.948;2023-04-06T03:25:23;-2.40;99.90
20380;DHT22;10349;48.666;8.948;2023-04-06T03:27:50;-2.40;99.90
20380;DHT22;10349;48.666;8.948;2023-04-06T03:30:18;-2.40;99.90
20380;DHT22;10349;48.666;8.948;2023-04-06T03:32:44;-2.40;99.90
20380;DHT22;10349;48.666;8.948;2023-04-06T03:35:10;-2.40;99.90
20380;DHT22;10349;48.666;8.948;2023-04-06T03:37:36;-2.30;99.90
20380;DHT22;10349;48.666;8.948;2023-04-06T03:40:03;-2.30;99.90
20380;DHT22;10349;48.666;8.948;2023-04-06T03:42:30;-2.30;99.90
20380;DHT22;10349;48.666;8.948;2023-04-06T03:45:02;-2.30;99.90
20380;DHT22;10349;48.666;8.948;2023-04-06T03:47:28;-2.40;99.90
20380;DHT22;10349;48.666;8.948;2023-04-06T03:49:59;-2.40;99.90
20380;DHT22;10349;48.666;8.948;2023-04-06T03:52:25;-2.40;99.90
20380;DHT22;10349;48.666;8.948;2023-04-06T03:54:51;-2.40;99.90
20380;DHT22;10349;48.666;8.948;2023-04-06T03:57:17;-2.50;99.90
20380;DHT22;10349;48.666;8.948;2023-04-06T03:59:43;-2.50;99.90
20380;DHT22;10349;48.666;8.948;2023-04-06T04:02:08;-2.50;99.90
20380;DHT22;10349;48.666;8.948;2023-04-06T04:04:34;-2.50;99.90
20380;DHT22;10349;48.666;8.948;2023-04-06T04:07:00;-2.50;99.90
20380;DHT22;10349;48.666;8.948;2023-04-06T04:09:26;-2.50;99.90
20380;DHT22;10349;48.666;8.948;2023-04-06T04:11:51;-2.50;99.90
20380;DHT22;10349;48.666;8.948;2023-04-06T04:14:17;-2.50;99.90
20380;DHT22;10349;48.666;8.948;2023-04-06T04:16:44;-2.50;99.90
20380;DHT22;10349;48.666;8.948;2023-04-06T04:19:09;-2.60;99.90
20380;DHT22;10349;48.666;8.948;2023-04-06T04:21:44;-2.60;99.90
20380;DHT22;10349;48.666;8.948;2023-04-06T04:24:12;-2.60;99.90
20380;DHT22;10349;48.666;8.948;2023-04-06T04:26:38;-2.60;99.90
20380;DHT22;10349;48.666;8.948;2023-04-06T04:29:06;-2.60;99.90
20380;DHT22;10349;48.666;8.948;2023-04-06T04:31:32;-2.60;99.90
20380;DHT22;10349;48.666;8.948;2023-04-06T04:34:01;-2.60;99.90
20380;DHT22;10349;48.666;8.948;2023-04-06T04:36:31;-2.70;99.90
20380;DHT22;10349;48.666;8.948;2023-04-06T04:39:01;-2.70;99.90
20380;DHT22;10349;48.666;8.948;2023-04-06T04:41:29;-2.70;99.90
20380;DHT22;10349;48.666;8.948;2023-04-06T04:43:56;-2.70;99.90
20380;DHT22;10349;48.666;8.948;2023-04-06T04:46:25;-2.80;99.90
20380;DHT22;10349;48.666;8.948;2023-04-06T04:48:52;-2.80;99.90
20380;DHT22;10349;48.666;8.948;2023-04-06T04:51:17;-2.80;99.90
20380;DHT22;10349;48.666;8.948;2023-04-06T04:54:10;-2.80;99.90
20380;DHT22;10349;48.666;8.948;2023-04-06T04:56:36;-2.80;99.90
20380;DHT22;10349;48.666;8.948;2023-04-06T04:59:37;-2.80;99.90
20380;DHT22;10349;48.666;8.948;2023-04-06T05:02:12;-2.80;99.90
20380;DHT22;10349;48.666;8.948;2023-04-06T05:04:47;-2.80;99.90
20380;DHT22;10349;48.666;8.948;2023-04-06T05:07:19;-2.80;99.90
20380;DHT22;10349;48.666;8.948;2023-04-06T05:09:46;-2.80;99.90
20380;DHT22;10349;48.666;8.948;2023-04-06T05:12:12;-2.80;99.90
20380;DHT22;10349;48.666;8.948;2023-04-06T05:14:48;-2.80;99.90
20380;DHT22;10349;48.666;8.948;2023-04-06T05:17:18;-2.70;99.90
20380;DHT22;10349;48.666;8.948;2023-04-06T05:19:44;-2.80;99.90
20380;DHT22;10349;48.666;8.948;2023-04-06T05:22:11;-2.70;99.90
20380;DHT22;10349;48.666;8.948;2023-04-06T05:24:41;-2.80;99.90
20380;DHT22;10349;48.666;8.948;2023-04-06T05:27:07;-2.70;99.90
20380;DHT22;10349;48.666;8.948;2023-04-06T05:29:33;-2.70;99.90
20380;DHT22;10349;48.666;8.948;2023-04-06T05:31:59;-2.60;99.90
20380;DHT22;10349;48.666;8.948;2023-04-06T05:34:26;-2.60;99.90
20380;DHT22;10349;48.666;8.948;2023-04-06T05:36:52;-2.60;99.90
20380;DHT22;10349;48.666;8.948;2023-04-06T05:39:21;-2.60;99.90
20380;DHT22;10349;48.666;8.948;2023-04-06T05:41:49;-2.50;99.90
20380;DHT22;10349;48.666;8.948;2023-04-06T05:44:21;-2.50;99.90
20380;DHT22;10349;48.666;8.948;2023-04-06T05:46:54;-2.50;99.90
20380;DHT22;10349;48.666;8.948;2023-04-06T05:49:20;-2.40;99.90
20380;DHT22;10349;48.666;8.948;2023-04-06T05:51:46;-2.40;99.90
20380;DHT22;10349;48.666;8.948;2023-04-06T05:54:12;-2.40;99.90
20380;DHT22;10349;48.666;8.948;2023-04-06T05:56:39;-2.30;99.90
20380;DHT22;10349;48.666;8.948;2023-04-06T05:59:05;-2.30;99.90
20380;DHT22;10349;48.666;8.948;2023-04-06T06:01:31;-2.20;99.90
20380;DHT22;10349;48.666;8.948;2023-04-06T06:04:00;-2.20;99.90
20380;DHT22;10349;48.666;8.948;2023-04-06T06:06:29;-2.00;99.90
20380;DHT22;10349;48.666;8.948;2023-04-06T06:09:19;-2.00;99.90
20380;DHT22;10349;48.666;8.948;2023-04-06T06:12:03;-2.00;99.90
20380;DHT22;10349;48.666;8.948;2023-04-06T06:14:29;-1.90;99.90
20380;DHT22;10349;48.666;8.948;2023-04-06T06:16:55;-1.80;99.90
20380;DHT22;10349;48.666;8.948;2023-04-06T06:19:22;-1.70;99.90
20380;DHT22;10349;48.666;8.948;2023-04-06T06:21:49;-1.70;99.90
20380;DHT22;10349;48.666;8.948;2023-04-06T06:24:14;-1.60;99.90
20380;DHT22;10349;48.666;8.948;2023-04-06T06:26:40;-1.50;99.90
20380;DHT22;10349;48.666;8.948;2023-04-06T06:29:07;-1.40;99.90
20380;DHT22;10349;48.666;8.948;2023-04-06T06:31:39;-1.40;99.90
20380;DHT22;10349;48.666;8.948;2023-04-06T06:34:04;-1.30;99.90
20380;DHT22;10349;48.666;8.948;2023-04-06T06:36:32;-1.20;99.90
20380;DHT22;10349;48.666;8.948;2023-04-06T06:38:59;-1.00;99.90
20380;DHT22;10349;48.666;8.948;2023-04-06T06:41:26;-1.00;99.90
20380;DHT22;10349;48.666;8.948;2023-04-06T06:43:54;-0.90;99.90
20380;DHT22;10349;48.666;8.948;2023-04-06T06:46:20;-0.80;99.90
20380;DHT22;10349;48.666;8.948;2023-04-06T06:48:46;-0.80;99.90
20380;DHT22;10349;48.666;8.948;2023-04-06T06:51:11;-0.70;99.90
20380;DHT22;10349;48.666;8.948;2023-04-06T06:53:39;-0.60;99.90
20380;DHT22;10349;48.666;8.948;2023-04-06T06:56:05;-0.50;99.90
20380;DHT22;10349;48.666;8.948;2023-04-06T06:58:31;-0.40;99.90
20380;DHT22;10349;48.666;8.948;2023-04-06T07:00:59;-0.30;99.90
20380;DHT22;10349;48.666;8.948;2023-04-06T07:03:26;-0.10;99.90
20380;DHT22;10349;48.666;8.948;2023-04-06T07:05:53;0.00;99.90
20380;DHT22;10349;48.666;8.948;2023-04-06T07:08:21;0.10;99.90
20380;DHT22;10349;48.666;8.948;2023-04-06T07:10:48;0.20;99.90
20380;DHT22;10349;48.666;8.948;2023-04-06T07:13:14;0.30;99.90
20380;DHT22;10349;48.666;8.948;2023-04-06T07:15:48;0.40;99.90
20380;DHT22;10349;48.666;8.948;2023-04-06T07:18:13;0.60;99.90
20380;DHT22;10349;48.666;8.948;2023-04-06T07:20:39;0.70;99.90
20380;DHT22;10349;48.666;8.948;2023-04-06T07:23:05;0.80;99.90
20380;DHT22;10349;48.666;8.948;2023-04-06T07:25:31;0.90;99.90
20380;DHT22;10349;48.666;8.948;2023-04-06T07:27:56;1.10;99.90
20380;DHT22;10349;48.666;8.948;2023-04-06T07:30:23;1.20;99.90
20380;DHT22;10349;48.666;8.948;2023-04-06T07:32:51;1.30;99.90
20380;DHT22;10349;48.666;8.948;2023-04-06T07:35:18;1.50;99.90
20380;DHT22;10349;48.666;8.948;2023-04-06T07:37:43;1.60;99.90
20380;DHT22;10349;48.666;8.948;2023-04-06T07:40:09;1.80;99.90
20380;DHT22;10349;48.666;8.948;2023-04-06T07:42:36;2.00;99.90
20380;DHT22;10349;48.666;8.948;2023-04-06T07:45:05;2.10;99.90
20380;DHT22;10349;48.666;8.948;2023-04-06T07:47:31;2.30;99.90
20380;DHT22;10349;48.666;8.948;2023-04-06T07:50:00;2.40;99.90
20380;DHT22;10349;48.666;8.948;2023-04-06T07:52:26;2.60;99.90
20380;DHT22;10349;48.666;8.948;2023-04-06T07:54:52;2.70;99.90
20380;DHT22;10349;48.666;8.948;2023-04-06T07:57:18;2.80;99.90
20380;DHT22;10349;48.666;8.948;2023-04-06T07:59:43;3.00;99.90
20380;DHT22;10349;48.666;8.948;2023-04-06T08:02:09;3.20;99.90
20380;DHT22;10349;48.666;8.948;2023-04-06T08:04:35;3.30;99.90
20380;DHT22;10349;48.666;8.948;2023-04-06T08:07:01;3.50;99.90
20380;DHT22;10349;48.666;8.948;2023-04-06T08:09:27;3.70;99.90
20380;DHT22;10349;48.666;8.948;2023-04-06T08:11:53;3.90;99.90
20380;DHT22;10349;48.666;8.948;2023-04-06T08:14:18;4.00;99.90
20380;DHT22;10349;48.666;8.948;2023-04-06T08:16:45;4.10;99.90
20380;DHT22;10349;48.666;8.948;2023-04-06T08:19:11;4.20;99.90
20380;DHT22;10349;48.666;8.948;2023-04-06T08:21:36;4.30;99.90
20380;DHT22;10349;48.666;8.948;2023-04-06T08:24:02;4.40;99.90
20380;DHT22;10349;48.666;8.948;2023-04-06T08:26:28;4.50;99.90
20380;DHT22;10349;48.666;8.948;2023-04-06T08:28:54;4.60;99.90
20380;DHT22;10349;48.666;8.948;2023-04-06T08:31:19;4.70;99.90
20380;DHT22;10349;48.666;8.948;2023-04-06T08:33:46;4.80;99.90
20380;DHT22;10349;48.666;8.948;2023-04-06T08:36:13;4.90;99.90
20380;DHT22;10349;48.666;8.948;2023-04-06T08:38:40;5.10;99.90
20380;DHT22;10349;48.666;8.948;2023-04-06T08:41:10;5.20;99.90
20380;DHT22;10349;48.666;8.948;2023-04-06T08:43:43;5.30;99.90
20380;DHT22;10349;48.666;8.948;2023-04-06T08:46:10;5.40;99.90
20380;DHT22;10349;48.666;8.948;2023-04-06T08:48:42;5.50;99.90
20380;DHT22;10349;48.666;8.948;2023-04-06T08:51:11;5.60;99.90
20380;DHT22;10349;48.666;8.948;2023-04-06T08:53:38;5.80;99.90
20380;DHT22;10349;48.666;8.948;2023-04-06T08:56:04;5.80;99.90
20380;DHT22;10349;48.666;8.948;2023-04-06T08:58:35;5.90;99.90
20380;DHT22;10349;48.666;8.948;2023-04-06T09:01:06;6.10;99.90
20380;DHT22;10349;48.666;8.948;2023-04-06T09:03:37;6.20;99.90
20380;DHT22;10349;48.666;8.948;2023-04-06T09:06:03;6.30;99.90
20380;DHT22;10349;48.666;8.948;2023-04-06T09:08:30;6.40;99.90
20380;DHT22;10349;48.666;8.948;2023-04-06T09:10:55;6.50;99.90
20380;DHT22;10349;48.666;8.948;2023-04-06T09:13:21;6.70;99.90
20380;DHT22;10349;48.666;8.948;2023-04-06T09:15:46;6.80;99.90
20380;DHT22;10349;48.666;8.948;2023-04-06T09:18:32;6.90;99.90
20380;DHT22;10349;48.666;8.948;2023-04-06T09:21:02;7.00;99.90
20380;DHT22;10349;48.666;8.948;2023-04-06T09:23:29;7.20;99.90
20380;DHT22;10349;48.666;8.948;2023-04-06T09:26:14;7.20;99.90
20380;DHT22;10349;48.666;8.948;2023-04-06T09:28:56;7.20;99.90
20380;DHT22;10349;48.666;8.948;2023-04-06T09:31:26;7.30;99.90
20380;DHT22;10349;48.666;8.948;2023-04-06T09:33:53;7.40;99.90
20380;DHT22;10349;48.666;8.948;2023-04-06T09:36:28;7.50;99.90
20380;DHT22;10349;48.666;8.948;2023-04-06T09:38:59;7.60;99.90
20380;DHT22;10349;48.666;8.948;2023-04-06T09:41:33;7.70;99.90
20380;DHT22;10349;48.666;8.948;2023-04-06T09:44:12;7.70;99.90
20380;DHT22;10349;48.666;8.948;2023-04-06T09:46:43;7.80;99.90
20380;DHT22;10349;48.666;8.948;2023-04-06T09:49:10;7.80;99.90
20380;DHT22;10349;48.666;8.948;2023-04-06T09:51:38;7.90;99.90
20380;DHT22;10349;48.666;8.948;2023-04-06T09:54:04;8.00;99.90
20380;DHT22;10349;48.666;8.948;2023-04-06T09:56:34;8.20;99.90
20380;DHT22;10349;48.666;8.948;2023-04-06T09:59:07;8.20;99.90
20380;DHT22;10349;48.666;8.948;2023-04-06T10:01:35;8.30;99.90
20380;DHT22;10349;48.666;8.948;2023-04-06T10:04:26;8.40;99.90
20380;DHT22;10349;48.666;8.948;2023-04-06T10:06:55;8.50;99.90
20380;DHT22;10349;48.666;8.948;2023-04-06T10:09:25;8.50;99.90
20380;DHT22;10349;48.666;8.948;2023-04-06T10:11:53;8.50;99.90
20380;DHT22;10349;48.666;8.948;2023-04-06T10:14:20;8.60;99.90
20380;DHT22;10349;48.666;8.948;2023-04-06T10:16:48;8.60;99.90
20380;DHT22;10349;48.666;8.948;2023-04-06T10:19:18;8.60;99.90
20380;DHT22;10349;48.666;8.948;2023-04-06T10:21:48;8.50;99.90
20380;DHT22;10349;48.666;8.948;2023-04-06T10:24:16;8.50;99.90
20380;DHT22;10349;48.666;8.948;2023-04-06T10:26:42;8.50;99.90
20380;DHT22;10349;48.666;8.948;2023-04-06T10:29:08;8.60;99.90
20380;DHT22;10349;48.666;8.948;2023-04-06T10:31:39;8.60;99.90
20380;DHT22;10349;48.666;8.948;2023-04-06T10:34:07;8.70;99.90
20380;DHT22;10349;48.666;8.948;2023-04-06T10:36:34;8.80;99.90
20380;DHT22;10349;48.666;8.948;2023-04-06T10:39:03;8.80;99.90
20380;DHT22;10349;48.666;8.948;2023-04-06T10:41:56;9.00;99.90
20380;DHT22;10349;48.666;8.948;2023-04-06T10:44:23;9.30;99.90
20380;DHT22;10349;48.666;8.948;2023-04-06T10:46:56;9.50;99.90
20380;DHT22;10349;48.666;8.948;2023-04-06T10:49:22;9.70;99.90
20380;DHT22;10349;48.666;8.948;2023-04-06T10:51:55;9.90;99.90
20380;DHT22;10349;48.666;8.948;2023-04-06T10:54:22;10.20;99.90
20380;DHT22;10349;48.666;8.948;2023-04-06T10:56:49;10.50;99.90
20380;DHT22;10349;48.666;8.948;2023-04-06T10:59:20;10.60;99.90
20380;DHT22;10349;48.666;8.948;2023-04-06T11:01:47;10.80;99.90
20380;DHT22;10349;48.666;8.948;2023-04-06T11:04:19;11.00;99.90
20380;DHT22;10349;48.666;8.948;2023-04-06T11:06:49;11.30;99.90
20380;DHT22;10349;48.666;8.948;2023-04-06T11:09:28;11.30;99.90
20380;DHT22;10349;48.666;8.948;2023-04-06T11:11:55;11.20;99.90
20380;DHT22;10349;48.666;8.948;2023-04-06T11:14:21;11.10;99.90
20380;DHT22;10349;48.666;8.948;2023-04-06T11:16:48;11.40;99.90
20380;DHT22;10349;48.666;8.948;2023-04-06T11:19:15;11.80;99.90
20380;DHT22;10349;48.666;8.948;2023-04-06T11:21:51;12.30;99.90
20380;DHT22;10349;48.666;8.948;2023-04-06T11:24:21;12.60;99.90
20380;DHT22;10349;48.666;8.948;2023-04-06T11:26:49;12.60;99.90
20380;DHT22;10349;48.666;8.948;2023-04-06T11:29:24;12.70;99.90
20380;DHT22;10349;48.666;8.948;2023-04-06T11:31:58;12.90;99.90
20380;DHT22;10349;48.666;8.948;2023-04-06T11:34:25;13.10;99.90
20380;DHT22;10349;48.666;8.948;2023-04-06T11:37:08;12.90;99.90
20380;DHT22;10349;48.666;8.948;2023-04-06T11:39:46;13.10;99.90
20380;DHT22;10349;48.666;8.948;2023-04-06T11:42:12;13.20;99.90
20380;DHT22;10349;48.666;8.948;2023-04-06T11:44:40;13.40;99.90
20380;DHT22;10349;48.666;8.948;2023-04-06T11:47:09;13.40;99.90
20380;DHT22;10349;48.666;8.948;2023-04-06T11:49:43;13.50;99.90
20380;DHT22;10349;48.666;8.948;2023-04-06T11:52:20;13.40;99.60
20380;DHT22;10349;48.666;8.948;2023-04-06T11:54:47;13.50;99.90
20380;DHT22;10349;48.666;8.948;2023-04-06T11:57:13;13.50;99.70
20380;DHT22;10349;48.666;8.948;2023-04-06T11:59:39;13.60;98.70
20380;DHT22;10349;48.666;8.948;2023-04-06T12:02:05;13.70;98.20
20380;DHT22;10349;48.666;8.948;2023-04-06T12:04:31;13.50;98.10
20380;DHT22;10349;48.666;8.948;2023-04-06T12:06:57;13.40;99.20
20380;DHT22;10349;48.666;8.948;2023-04-06T12:09:23;13.70;98.70
20380;DHT22;10349;48.666;8.948;2023-04-06T12:11:49;13.80;97.70
20380;DHT22;10349;48.666;8.948;2023-04-06T12:14:15;13.70;96.60
20380;DHT22;10349;48.666;8.948;2023-04-06T12:16:41;13.30;97.00
20380;DHT22;10349;48.666;8.948;2023-04-06T12:19:07;13.20;97.50
20380;DHT22;10349;48.666;8.948;2023-04-06T12:21:34;13.10;97.10
20380;DHT22;10349;48.666;8.948;2023-04-06T12:24:03;13.20;96.90
20380;DHT22;10349;48.666;8.948;2023-04-06T12:26:29;13.40;97.80
20380;DHT22;10349;48.666;8.948;2023-04-06T12:28:56;13.50;97.10
20380;DHT22;10349;48.666;8.948;2023-04-06T12:31:22;13.80;97.20
20380;DHT22;10349;48.666;8.948;2023-04-06T12:33:49;13.90;96.40
20380;DHT22;10349;48.666;8.948;2023-04-06T12:36:17;14.20;97.80
20380;DHT22;10349;48.666;8.948;2023-04-06T12:38:50;14.20;96.40
20380;DHT22;10349;48.666;8.948;2023-04-06T12:41:17;13.90;96.50
20380;DHT22;10349;48.666;8.948;2023-04-06T12:43:43;14.00;97.50
20380;DHT22;10349;48.666;8.948;2023-04-06T12:46:10;14.00;95.80
20380;DHT22;10349;48.666;8.948;2023-04-06T12:48:36;14.10;95.80
20380;DHT22;10349;48.666;8.948;2023-04-06T12:51:04;14.00;95.80
20380;DHT22;10349;48.666;8.948;2023-04-06T12:53:30;14.00;95.40
20380;DHT22;10349;48.666;8.948;2023-04-06T12:55:56;13.70;95.00
20380;DHT22;10349;48.666;8.948;2023-04-06T12:58:23;13.40;95.20
20380;DHT22;10349;48.666;8.948;2023-04-06T13:00:49;13.30;95.00
20380;DHT22;10349;48.666;8.948;2023-04-06T13:03:17;13.40;96.30
20380;DHT22;10349;48.666;8.948;2023-04-06T13:05:46;13.60;96.40
20380;DHT22;10349;48.666;8.948;2023-04-06T13:08:13;13.90;96.30
20380;DHT22;10349;48.666;8.948;2023-04-06T13:10:43;14.00;96.70
20380;DHT22;10349;48.666;8.948;2023-04-06T13:13:09;14.30;96.40
20380;DHT22;10349;48.666;8.948;2023-04-06T13:15:35;14.60;96.00
20380;DHT22;10349;48.666;8.948;2023-04-06T13:18:02;14.40;96.10
20380;DHT22;10349;48.666;8.948;2023-04-06T13:20:28;14.30;95.90
20380;DHT22;10349;48.666;8.948;2023-04-06T13:22:54;14.10;95.30
20380;DHT22;10349;48.666;8.948;2023-04-06T13:25:19;14.10;96.10
20380;DHT22;10349;48.666;8.948;2023-04-06T13:27:45;13.80;95.00
20380;DHT22;10349;48.666;8.948;2023-04-06T13:30:14;13.50;95.30
20380;DHT22;10349;48.666;8.948;2023-04-06T13:32:40;13.40;95.20
20380;DHT22;10349;48.666;8.948;2023-04-06T13:35:06;13.40;96.80
20380;DHT22;10349;48.666;8.948;2023-04-06T13:37:33;13.50;95.20
20380;DHT22;10349;48.666;8.948;2023-04-06T13:39:59;13.40;95.30
20380;DHT22;10349;48.666;8.948;2023-04-06T13:42:25;13.30;96.20
20380;DHT22;10349;48.666;8.948;2023-04-06T13:44:52;13.60;95.90
20380;DHT22;10349;48.666;8.948;2023-04-06T13:47:19;13.80;96.50
20380;DHT22;10349;48.666;8.948;2023-04-06T13:49:46;14.00;97.00
20380;DHT22;10349;48.666;8.948;2023-04-06T13:52:12;14.20;95.80
20380;DHT22;10349;48.666;8.948;2023-04-06T13:54:38;14.30;96.30
20380;DHT22;10349;48.666;8.948;2023-04-06T13:57:04;14.40;95.60
20380;DHT22;10349;48.666;8.948;2023-04-06T13:59:37;14.20;96.60
20380;DHT22;10349;48.666;8.948;2023-04-06T14:02:04;14.20;96.80
20380;DHT22;10349;48.666;8.948;2023-04-06T14:04:30;14.30;95.60
20380;DHT22;10349;48.666;8.948;2023-04-06T14:07:00;14.30;95.80
20380;DHT22;10349;48.666;8.948;2023-04-06T14:09:26;14.60;95.90
20380;DHT22;10349;48.666;8.948;2023-04-06T14:11:52;14.50;95.80
20380;DHT22;10349;48.666;8.948;2023-04-06T14:14:18;14.70;96.80
20380;DHT22;10349;48.666;8.948;2023-04-06T14:16:43;14.60;96.50
20380;DHT22;10349;48.666;8.948;2023-04-06T14:19:12;14.40;95.90
20380;DHT22;10349;48.666;8.948;2023-04-06T14:21:38;14.50;96.60
20380;DHT22;10349;48.666;8.948;2023-04-06T14:24:06;14.60;95.30
20380;DHT22;10349;48.666;8.948;2023-04-06T14:26:33;14.60;96.40
20380;DHT22;10349;48.666;8.948;2023-04-06T14:29:00;14.80;95.10
20380;DHT22;10349;48.666;8.948;2023-04-06T14:31:26;14.60;96.10
20380;DHT22;10349;48.666;8.948;2023-04-06T14:33:52;14.70;96.50
20380;DHT22;10349;48.666;8.948;2023-04-06T14:36:21;14.50;95.80
20380;DHT22;10349;48.666;8.948;2023-04-06T14:38:57;14.60;96.00
20380;DHT22;10349;48.666;8.948;2023-04-06T14:41:24;14.30;95.60
20380;DHT22;10349;48.666;8.948;2023-04-06T14:43:50;14.10;96.10
20380;DHT22;10349;48.666;8.948;2023-04-06T14:46:18;13.90;96.10
20380;DHT22;10349;48.666;8.948;2023-04-06T14:48:44;13.70;96.10
20380;DHT22;10349;48.666;8.948;2023-04-06T14:51:11;13.70;96.10
20380;DHT22;10349;48.666;8.948;2023-04-06T14:53:37;13.60;96.50
20380;DHT22;10349;48.666;8.948;2023-04-06T14:56:03;13.60;96.30
20380;DHT22;10349;48.666;8.948;2023-04-06T14:58:29;13.50;96.70
20380;DHT22;10349;48.666;8.948;2023-04-06T15:00:56;13.30;96.10
20380;DHT22;10349;48.666;8.948;2023-04-06T15:03:27;13.10;96.50
20380;DHT22;10349;48.666;8.948;2023-04-06T15:05:53;13.10;97.30
20380;DHT22;10349;48.666;8.948;2023-04-06T15:08:19;13.00;96.60
20380;DHT22;10349;48.666;8.948;2023-04-06T15:10:50;12.80;96.50
20380;DHT22;10349;48.666;8.948;2023-04-06T15:13:16;12.70;96.40
20380;DHT22;10349;48.666;8.948;2023-04-06T15:15:42;12.60;97.30
20380;DHT22;10349;48.666;8.948;2023-04-06T15:18:10;12.60;96.40
20380;DHT22;10349;48.666;8.948;2023-04-06T15:20:37;12.60;97.30
20380;DHT22;10349;48.666;8.948;2023-04-06T15:23:03;12.70;97.90
20380;DHT22;10349;48.666;8.948;2023-04-06T15:25:29;12.70;97.50
20380;DHT22;10349;48.666;8.948;2023-04-06T15:27:56;12.70;97.40
20380;DHT22;10349;48.666;8.948;2023-04-06T15:30:22;12.70;97.70
20380;DHT22;10349;48.666;8.948;2023-04-06T15:32:59;12.60;97.40
20380;DHT22;10349;48.666;8.948;2023-04-06T15:35:31;12.40;97.80
20380;DHT22;10349;48.666;8.948;2023-04-06T15:37:58;12.40;97.80
20380;DHT22;10349;48.666;8.948;2023-04-06T15:40:25;12.40;97.00
20380;DHT22;10349;48.666;8.948;2023-04-06T15:42:50;12.30;97.30